Time;durP1;ratioP1;P1;durP2;ratioP2;P2;SDS_P1;SDS_P2;PMS_P1;PMS_P2;Temp;Humidity;BMP_temperature;BMP_pressure;BME280_temperature;BME280_humidity;BME280_pressure;Samples;Min_cycle;Max_cycle;Signal;HPM_P1;HPM_P2
2021/07/25 00:01:38;;;;;;;5.95;3.92;;;16.90;99.90;;;;;;6156279;23;20290;-93
2021/07/25 00:04:05;;;;;;;5.18;3.60;;;16.90;99.90;;;;;;6158460;23;20206;-93
2021/07/25 00:06:32;;;;;;;5.32;3.33;;;16.90;99.90;;;;;;6156341;23;20230;-93
2021/07/25 00:08:59;;;;;;;9.20;3.65;;;17.00;99.90;;;;;;6155931;23;20271;-93
2021/07/25 00:11:26;;;;;;;5.75;3.70;;;17.10;99.90;;;;;;6156476;23;20289;-93
2021/07/25 00:16:35;;;;;;;5.90;3.70;;;17.20;99.90;;;;;;6146822;23;20207;-93
2021/07/25 00:19:02;;;;;;;6.63;3.85;;;17.10;99.90;;;;;;6157055;23;20552;-93
2021/07/25 00:21:29;;;;;;;6.68;3.42;;;17.10;99.90;;;;;;6157143;23;20234;-93
2021/07/25 00:23:58;;;;;;;7.13;4.35;;;17.00;99.90;;;;;;6157250;23;20230;-93
2021/07/25 00:26:37;;;;;;;5.45;3.70;;;16.90;99.90;;;;;;6157924;23;20233;-93
2021/07/25 00:31:49;;;;;;;6.47;3.72;;;17.00;99.90;;;;;;6158511;23;20261;-92
2021/07/25 00:34:17;;;;;;;10.27;3.95;;;17.00;99.90;;;;;;6160767;23;20183;-93
2021/07/25 00:36:44;;;;;;;5.40;3.97;;;17.00;99.90;;;;;;6155508;23;20526;-92
2021/07/25 00:39:11;;;;;;;8.68;4.43;;;16.90;99.90;;;;;;6155444;23;20254;-94
2021/07/25 00:41:38;;;;;;;6.20;3.45;;;16.90;99.90;;;;;;6154616;23;20211;-93
2021/07/25 00:46:52;;;;;;;4.30;3.90;;;17.00;99.90;;;;;;6105583;23;20234;-93
2021/07/25 00:49:19;;;;;;;5.22;3.90;;;17.20;99.90;;;;;;6156289;23;20211;-93
2021/07/25 00:51:46;;;;;;;5.20;3.70;;;17.20;99.90;;;;;;6157134;23;20204;-94
2021/07/25 00:54:14;;;;;;;6.72;3.90;;;17.10;99.90;;;;;;6156570;23;20211;-93
2021/07/25 00:56:41;;;;;;;6.45;4.05;;;17.10;99.90;;;;;;6155104;23;20223;-93
2021/07/25 00:59:11;;;;;;;6.97;4.10;;;17.10;99.90;;;;;;6154811;23;20289;-93
2021/07/25 01:04:36;;;;;;;6.15;3.75;;;17.10;99.90;;;;;;6137402;23;20175;-93
2021/07/25 01:09:59;;;;;;;5.82;3.85;;;17.30;99.90;;;;;;6113792;23;20210;-93
2021/07/25 01:12:33;;;;;;;5.82;4.03;;;17.40;99.90;;;;;;6154902;23;20191;-94
2021/07/25 01:17:44;;;;;;;6.82;3.80;;;17.40;99.90;;;;;;6127395;23;20475;-93
2021/07/25 01:22:56;;;;;;;6.22;3.92;;;17.30;99.90;;;;;;6109132;23;20179;-93
2021/07/25 01:28:09;;;;;;;5.95;3.90;;;17.20;99.90;;;;;;6104724;23;20675;-94
2021/07/25 01:30:39;;;;;;;4.82;4.07;;;17.00;99.90;;;;;;6153005;23;20215;-93
2021/07/25 01:33:11;;;;;;;6.70;4.07;;;17.00;99.90;;;;;;6112703;23;20190;-93
2021/07/25 01:38:45;;;;;;;6.97;4.30;;;17.00;99.90;;;;;;6121163;23;20185;-93
2021/07/25 01:43:54;;;;;;;6.15;4.32;;;16.90;99.90;;;;;;6129804;23;20250;-93
2021/07/25 01:46:21;;;;;;;9.18;4.53;;;16.90;99.90;;;;;;6153398;23;20743;-93
2021/07/25 01:54:11;;;;;;;5.40;4.13;;;17.20;99.90;;;;;;6101975;23;20178;-93
2021/07/25 01:56:37;;;;;;;6.00;4.05;;;17.20;99.90;;;;;;6152530;23;20215;-92
2021/07/25 01:59:04;;;;;;;4.88;4.10;;;17.20;99.90;;;;;;6152466;23;20451;-93
2021/07/25 02:04:12;;;;;;;6.15;4.03;;;17.30;99.90;;;;;;6102140;23;20182;-93
2021/07/25 02:06:41;;;;;;;7.85;3.95;;;17.40;99.90;;;;;;6151926;23;20211;-93
2021/07/25 02:09:08;;;;;;;5.70;3.88;;;17.30;99.90;;;;;;6151969;23;20627;-94
2021/07/25 02:11:54;;;;;;;5.60;4.57;;;17.20;99.90;;;;;;6130964;23;20175;-93
2021/07/25 02:14:21;;;;;;;4.60;3.72;;;17.20;99.90;;;;;;6152436;23;20171;-93
2021/07/25 02:16:48;;;;;;;7.38;4.45;;;17.10;99.90;;;;;;6149914;23;20284;-93
2021/07/25 02:19:15;;;;;;;5.85;4.72;;;17.10;99.90;;;;;;6149694;23;20175;-93
2021/07/25 02:21:44;;;;;;;6.97;4.82;;;17.20;99.90;;;;;;6150936;23;20210;-93
2021/07/25 02:24:10;;;;;;;6.53;4.45;;;17.20;99.90;;;;;;6149993;23;20210;-92
2021/07/25 02:26:37;;;;;;;5.03;4.38;;;17.20;99.90;;;;;;6150494;23;20273;-92
2021/07/25 02:29:05;;;;;;;6.88;4.45;;;17.30;99.90;;;;;;6152547;23;20214;-93
2021/07/25 02:31:32;;;;;;;6.60;4.40;;;17.30;99.90;;;;;;6153753;23;20207;-93
2021/07/25 02:33:59;;;;;;;5.25;4.72;;;17.30;99.90;;;;;;6154294;23;20187;-93
2021/07/25 02:36:26;;;;;;;6.53;4.70;;;17.40;99.90;;;;;;6152429;23;20317;-92
2021/07/25 02:41:35;;;;;;;8.25;5.07;;;17.40;99.90;;;;;;6114484;23;20507;-93
2021/07/25 02:46:43;;;;;;;8.98;5.45;;;17.40;99.90;;;;;;6150897;23;20178;-93
2021/07/25 02:49:10;;;;;;;6.97;4.70;;;17.50;99.90;;;;;;6154828;23;20211;-93
2021/07/25 02:51:37;;;;;;;6.80;4.65;;;17.50;99.90;;;;;;6154041;23;20455;-93
2021/07/25 02:54:05;;;;;;;6.88;4.88;;;17.40;99.90;;;;;;6154394;23;20175;-93
2021/07/25 02:56:32;;;;;;;9.20;4.90;;;17.60;99.90;;;;;;6154228;23;20290;-93
2021/07/25 02:58:59;;;;;;;6.45;4.38;;;17.50;99.90;;;;;;6154701;23;20258;-93
2021/07/25 03:01:26;;;;;;;5.68;4.60;;;17.60;99.90;;;;;;6146805;23;20217;-93
2021/07/25 03:03:52;;;;;;;7.70;4.60;;;17.60;99.90;;;;;;6155607;23;20274;-93
2021/07/25 03:06:19;;;;;;;6.95;4.43;;;17.70;99.90;;;;;;6154614;23;20290;-93
2021/07/25 03:08:46;;;;;;;5.20;4.15;;;17.70;99.90;;;;;;6152388;23;20258;-93
2021/07/25 03:14:18;;;;;;;11.40;4.45;;;17.50;99.90;;;;;;6116716;23;20706;-93
2021/07/25 03:16:46;;;;;;;7.55;4.40;;;17.50;99.90;;;;;;6151467;23;20266;-93
2021/07/25 03:19:13;;;;;;;6.80;3.90;;;17.60;99.90;;;;;;6152852;23;20619;-93
2021/07/25 03:21:40;;;;;;;4.55;3.97;;;17.60;99.80;;;;;;6149294;23;20211;-93
2021/07/25 03:29:30;;;;;;;4.95;4.20;;;17.50;99.90;;;;;;6136598;23;20187;-93
2021/07/25 03:31:57;;;;;;;5.80;3.83;;;17.50;99.90;;;;;;6152709;23;20234;-93
2021/07/25 03:34:29;;;;;;;9.23;4.28;;;17.50;99.70;;;;;;6154922;23;20180;-93
2021/07/25 03:37:11;;;;;;;9.18;4.28;;;17.50;99.70;;;;;;6125349;23;20193;-93
2021/07/25 03:39:38;;;;;;;6.82;4.03;;;17.60;99.50;;;;;;6153622;23;20175;-93
2021/07/25 03:42:07;;;;;;;5.78;3.85;;;17.60;99.40;;;;;;6151650;23;20207;-93
2021/07/25 03:44:34;;;;;;;6.00;3.92;;;17.60;99.30;;;;;;6152277;23;20235;-94
2021/07/25 03:47:02;;;;;;;9.20;4.38;;;17.50;99.50;;;;;;6152659;23;20723;-93
2021/07/25 03:49:29;;;;;;;7.90;4.20;;;17.60;99.30;;;;;;6153657;23;20233;-93
2021/07/25 03:51:57;;;;;;;6.72;3.90;;;17.60;99.20;;;;;;6154593;23;20199;-93
2021/07/25 03:54:24;;;;;;;5.75;3.90;;;17.60;99.30;;;;;;6154389;23;20171;-93
2021/07/25 03:56:52;;;;;;;5.78;3.80;;;17.50;99.60;;;;;;6138696;23;20238;-93
2021/07/25 03:59:20;;;;;;;6.72;4.30;;;17.60;99.80;;;;;;6153128;23;20214;-93
2021/07/25 04:01:47;;;;;;;9.32;4.15;;;17.80;99.10;;;;;;6153569;23;20282;-93
2021/07/25 04:04:14;;;;;;;5.40;4.13;;;17.80;98.80;;;;;;6153991;23;20178;-93
2021/07/25 04:06:41;;;;;;;6.82;4.43;;;17.80;98.90;;;;;;6152140;23;20203;-93
2021/07/25 04:09:08;;;;;;;7.40;4.13;;;17.80;98.50;;;;;;6154713;23;20182;-93
2021/07/25 04:11:35;;;;;;;8.88;4.00;;;17.80;98.20;;;;;;6152886;23;20207;-93
2021/07/25 04:14:01;;;;;;;10.52;4.07;;;17.70;99.00;;;;;;6152546;23;20182;-93
2021/07/25 04:19:11;;;;;;;8.95;4.25;;;17.70;98.70;;;;;;6143654;23;20202;-93
2021/07/25 04:21:38;;;;;;;8.05;4.50;;;17.70;98.60;;;;;;6152967;23;20234;-93
2021/07/25 04:24:05;;;;;;;7.50;4.68;;;17.70;98.30;;;;;;6153796;23;20219;-93
2021/07/25 04:29:14;;;;;;;7.55;4.65;;;17.60;98.80;;;;;;6141734;23;20211;-93
2021/07/25 04:31:43;;;;;;;8.55;4.20;;;17.50;98.90;;;;;;6150580;23;20306;-93
2021/07/25 04:34:10;;;;;;;5.78;3.75;;;17.60;99.40;;;;;;6152857;23;20214;-93
2021/07/25 04:36:39;;;;;;;10.05;4.35;;;17.60;98.70;;;;;;6152345;23;20218;-92
2021/07/25 04:41:53;;;;;;;7.38;4.20;;;17.50;98.70;;;;;;6124840;23;20175;-93
2021/07/25 04:44:27;;;;;;;7.38;4.07;;;17.60;99.00;;;;;;6151203;23;20249;-93
2021/07/25 04:52:53;;;;;;;5.65;3.97;;;17.80;98.40;;;;;;6112525;23;20179;-93
2021/07/25 04:55:23;;;;;;;5.18;3.88;;;17.80;98.60;;;;;;6151772;23;20673;-92
2021/07/25 04:58:02;;;;;;;10.77;4.10;;;17.90;98.60;;;;;;6152358;23;20639;-93
2021/07/25 05:00:31;;;;;;;7.50;3.97;;;17.90;98.20;;;;;;6151864;23;20274;-93
2021/07/25 05:08:24;;;;;;;6.20;4.32;;;18.00;98.30;;;;;;6135552;23;20171;-93
2021/07/25 05:22:24;;;;;;;6.35;4.07;;;18.20;97.70;;;;;;6111831;23;20187;-93
2021/07/25 05:24:52;;;;;;;5.72;3.88;;;18.50;97.70;;;;;;6155156;23;20178;-93
2021/07/25 05:30:02;;;;;;;7.50;4.00;;;18.60;96.50;;;;;;6151176;23;20178;-93
2021/07/25 05:32:29;;;;;;;3.63;3.30;;;18.70;96.60;;;;;;6152728;23;20178;-91
2021/07/25 05:34:57;;;;;;;7.82;4.43;;;18.70;96.40;;;;;;6151766;23;20179;-91
2021/07/25 05:37:24;;;;;;;6.82;3.80;;;18.80;96.30;;;;;;6151862;23;20199;-92
2021/07/25 05:42:35;;;;;;;4.97;4.10;;;18.80;96.20;;;;;;6152609;23;20171;-92
2021/07/25 05:47:47;;;;;;;7.65;4.07;;;18.70;96.50;;;;;;6153344;23;20191;-92
2021/07/25 05:50:16;;;;;;;5.85;3.78;;;18.80;96.20;;;;;;6154674;23;20210;-92
2021/07/25 05:55:30;;;;;;;6.70;4.30;;;18.90;96.40;;;;;;6154119;23;20198;-93
2021/07/25 05:57:57;;;;;;;6.53;4.05;;;19.00;95.90;;;;;;6155342;23;20266;-93
2021/07/25 06:00:24;;;;;;;5.88;4.00;;;19.00;96.00;;;;;;6154107;23;20262;-93
2021/07/25 06:02:53;;;;;;;10.75;4.28;;;19.00;96.00;;;;;;6154706;23;20265;-92
2021/07/25 06:05:22;;;;;;;9.35;4.45;;;19.00;96.00;;;;;;6156501;23;20202;-92
2021/07/25 06:07:49;;;;;;;6.15;4.25;;;19.10;96.00;;;;;;6156821;23;20258;-92
2021/07/25 06:10:19;;;;;;;5.78;4.05;;;19.20;95.70;;;;;;6154607;23;20277;-92
2021/07/25 06:12:47;;;;;;;11.98;4.40;;;19.40;95.10;;;;;;6156802;23;20221;-92
2021/07/25 06:15:14;;;;;;;6.63;3.97;;;19.50;94.40;;;;;;6155098;23;20237;-93
2021/07/25 06:17:41;;;;;;;7.30;4.30;;;19.70;94.10;;;;;;6156938;23;20174;-93
2021/07/25 06:20:09;;;;;;;7.30;4.57;;;19.80;93.50;;;;;;6154721;23;20264;-92
2021/07/25 06:25:35;;;;;;;4.80;4.18;;;20.10;93.30;;;;;;6158718;23;20527;-92
2021/07/25 06:28:03;;;;;;;8.55;4.50;;;20.00;92.60;;;;;;6161688;23;20183;-93
2021/07/25 06:33:12;;;;;;;8.50;4.43;;;20.00;91.80;;;;;;6164582;23;20631;-91
2021/07/25 06:35:40;;;;;;;5.65;4.13;;;19.90;92.60;;;;;;6164361;23;20207;-90
2021/07/25 06:41:15;;;;;;;9.80;4.30;;;20.00;93.60;;;;;;6148728;23;20256;-90
2021/07/25 06:43:42;;;;;;;7.50;4.30;;;19.80;93.30;;;;;;6161406;23;20202;-90
2021/07/25 06:46:09;;;;;;;8.05;4.60;;;19.80;93.40;;;;;;6157721;23;20222;-91
2021/07/25 06:48:37;;;;;;;5.70;4.50;;;19.90;93.20;;;;;;6159511;23;20283;-90
2021/07/25 06:51:04;;;;;;;4.43;4.03;;;19.80;93.00;;;;;;6159966;23;20262;-90
2021/07/25 06:53:33;;;;;;;7.78;4.13;;;19.80;93.10;;;;;;6165148;23;20199;-92
2021/07/25 06:56:05;;;;;;;8.90;4.35;;;20.10;93.50;;;;;;6152980;23;20207;-91
2021/07/25 06:58:51;;;;;;;7.88;4.32;;;20.00;93.40;;;;;;6159088;23;20179;-91
2021/07/25 07:01:18;;;;;;;4.95;4.30;;;20.10;92.70;;;;;;6168662;23;20203;-90
2021/07/25 07:03:45;;;;;;;5.40;4.20;;;20.20;92.70;;;;;;6112271;23;20185;-90
2021/07/25 07:08:54;;;;;;;6.95;4.00;;;20.40;92.30;;;;;;6158251;23;20936;-90
2021/07/25 07:11:27;;;;;;;9.40;4.38;;;20.70;92.80;;;;;;6155652;23;20897;-90
2021/07/25 07:13:54;;;;;;;6.38;4.45;;;20.80;91.10;;;;;;6156069;23;20167;-91
2021/07/25 07:16:21;;;;;;;6.35;4.00;;;20.90;89.70;;;;;;6153515;23;20365;-90
2021/07/25 07:18:48;;;;;;;6.20;4.05;;;21.10;88.80;;;;;;6155945;23;20179;-91
2021/07/25 07:21:15;;;;;;;6.15;3.85;;;20.90;85.50;;;;;;6160238;23;20577;-91
2021/07/25 07:23:42;;;;;;;7.07;4.50;;;21.00;87.30;;;;;;6153677;23;20297;-91
2021/07/25 07:26:11;;;;;;;8.05;4.10;;;21.10;85.50;;;;;;6153029;23;20235;-91
2021/07/25 07:28:38;;;;;;;5.15;4.20;;;21.20;86.10;;;;;;6153822;23;20262;-91
2021/07/25 07:31:04;;;;;;;10.25;4.35;;;21.20;86.60;;;;;;6155088;23;20727;-90
2021/07/25 07:33:31;;;;;;;4.95;3.85;;;21.20;84.70;;;;;;6162173;23;20207;-90
2021/07/25 07:35:58;;;;;;;6.40;4.68;;;21.20;83.60;;;;;;6158182;23;20234;-89
2021/07/25 07:38:25;;;;;;;5.95;4.80;;;21.30;81.70;;;;;;6160503;23;20567;-88
2021/07/25 07:40:52;;;;;;;4.82;4.18;;;21.40;87.60;;;;;;6156634;23;20302;-89
2021/07/25 07:43:22;;;;;;;6.40;3.72;;;21.50;83.70;;;;;;6156724;23;20286;-90
2021/07/25 07:45:50;;;;;;;7.82;4.13;;;21.70;82.00;;;;;;6155295;23;20533;-90
2021/07/25 07:48:19;;;;;;;7.32;4.15;;;21.80;80.60;;;;;;6160344;23;20203;-90
2021/07/25 07:50:46;;;;;;;10.60;4.05;;;22.10;77.90;;;;;;6153944;23;20876;-90
2021/07/25 07:53:13;;;;;;;9.35;4.20;;;22.30;76.80;;;;;;6155727;23;20232;-90
2021/07/25 07:55:40;;;;;;;5.88;3.92;;;22.60;75.90;;;;;;6154167;23;20205;-89
2021/07/25 07:58:07;;;;;;;7.18;4.43;;;22.80;75.60;;;;;;6154866;23;20277;-90
2021/07/25 08:00:36;;;;;;;4.32;3.80;;;22.80;71.80;;;;;;6153974;23;20199;-90
2021/07/25 08:03:04;;;;;;;5.60;4.03;;;22.90;73.20;;;;;;6156155;23;20207;-90
2021/07/25 08:05:31;;;;;;;5.65;4.35;;;23.10;75.50;;;;;;6154397;23;20202;-89
2021/07/25 08:07:58;;;;;;;6.60;4.35;;;23.00;70.20;;;;;;6156444;23;20628;-91
2021/07/25 08:10:26;;;;;;;8.98;4.32;;;22.40;74.40;;;;;;6154851;23;20201;-88
2021/07/25 08:12:53;;;;;;;7.22;4.65;;;22.70;73.80;;;;;;6157696;23;20199;-88
2021/07/25 08:15:19;;;;;;;4.15;3.72;;;23.20;67.30;;;;;;6156842;23;20281;-89
2021/07/25 08:17:48;;;;;;;6.05;3.90;;;23.60;62.40;;;;;;6158200;23;20250;-88
2021/07/25 08:20:15;;;;;;;4.43;4.00;;;24.10;59.70;;;;;;6162191;23;20203;-88
2021/07/25 08:22:42;;;;;;;4.20;3.80;;;24.10;61.30;;;;;;6163831;23;20265;-88
2021/07/25 08:25:10;;;;;;;4.43;4.00;;;24.20;59.70;;;;;;6154011;23;20175;-88
2021/07/25 08:27:37;;;;;;;5.82;4.00;;;24.50;60.10;;;;;;6155006;23;20202;-86
2021/07/25 08:30:07;;;;;;;4.40;3.90;;;24.80;57.80;;;;;;6155532;23;20211;-87
2021/07/25 08:32:34;;;;;;;5.15;4.00;;;25.30;55.20;;;;;;6157558;23;20183;-84
2021/07/25 08:35:02;;;;;;;6.88;4.70;;;25.30;52.10;;;;;;6158531;23;20180;-85
2021/07/25 08:37:29;;;;;;;5.20;3.90;;;25.30;51.90;;;;;;6167448;23;20182;-87
2021/07/25 08:39:57;;;;;;;4.57;4.15;;;25.00;51.50;;;;;;6167598;23;20183;-87
2021/07/25 08:42:26;;;;;;;4.70;4.00;;;25.00;52.10;;;;;;6170162;23;20159;-87
2021/07/25 08:44:56;;;;;;;5.40;4.10;;;25.00;53.40;;;;;;6165981;23;20496;-88
2021/07/25 08:47:40;;;;;;;5.72;4.00;;;24.90;53.80;;;;;;6159907;23;20215;-90
2021/07/25 08:50:12;;;;;;;6.60;4.22;;;25.50;47.80;;;;;;6152098;23;20179;-88
2021/07/25 08:52:41;;;;;;;7.15;4.18;;;26.10;45.30;;;;;;6152838;23;20186;-87
2021/07/25 08:55:10;;;;;;;5.45;4.20;;;26.30;42.70;;;;;;6151937;23;20249;-89
2021/07/25 08:57:39;;;;;;;8.93;3.67;;;26.90;42.60;;;;;;6149765;23;20867;-89
2021/07/25 09:00:08;;;;;;;5.60;4.25;;;26.80;41.80;;;;;;6151815;23;20186;-88
2021/07/25 09:02:35;;;;;;;5.13;4.22;;;26.60;39.50;;;;;;6153131;23;20167;-88
2021/07/25 09:05:03;;;;;;;4.88;4.28;;;26.10;42.50;;;;;;6150103;23;20185;-90
2021/07/25 09:07:32;;;;;;;6.22;4.07;;;25.80;43.80;;;;;;6156694;23;20167;-88
2021/07/25 09:10:02;;;;;;;5.95;4.32;;;25.50;44.40;;;;;;6158252;23;20175;-86
2021/07/25 09:12:32;;;;;;;6.30;3.97;;;25.30;50.30;;;;;;6157274;23;20516;-86
2021/07/25 09:15:02;;;;;;;4.85;4.18;;;25.30;49.60;;;;;;6158461;23;20294;-86
2021/07/25 09:17:29;;;;;;;5.85;4.30;;;25.10;49.80;;;;;;6160155;23;20167;-85
2021/07/25 09:20:17;;;;;;;33.50;30.05;;;24.80;50.50;;;;;;6155602;23;20221;-85
2021/07/25 09:23:04;;;;;;;6.10;4.30;;;24.40;54.40;;;;;;6157764;23;20183;-87
2021/07/25 09:25:37;;;;;;;6.05;4.28;;;24.90;53.00;;;;;;6156791;23;20285;-83
2021/07/25 09:28:16;;;;;;;6.28;3.88;;;25.10;51.70;;;;;;6161008;23;20865;-85
2021/07/25 09:30:43;;;;;;;7.15;4.28;;;24.80;50.00;;;;;;6163698;23;20655;-85
2021/07/25 09:33:33;;;;;;;4.55;4.15;;;24.90;51.50;;;;;;6161722;23;20219;-84
2021/07/25 09:36:11;;;;;;;5.80;3.85;;;24.80;52.60;;;;;;6157801;23;20207;-86
2021/07/25 09:38:40;;;;;;;8.35;3.75;;;24.70;49.50;;;;;;6158879;23;20246;-85
2021/07/25 09:41:19;;;;;;;4.18;3.78;;;24.60;49.70;;;;;;6159453;23;20209;-91
2021/07/25 09:44:01;;;;;;;5.30;3.80;;;23.70;53.40;;;;;;6161511;23;20214;-84
2021/07/25 09:46:40;;;;;;;5.35;3.60;;;24.00;52.90;;;;;;6162964;23;20211;-86
2021/07/25 09:49:07;;;;;;;6.15;3.15;;;24.20;49.60;;;;;;6158982;23;20290;-88
2021/07/25 09:51:34;;;;;;;7.35;3.60;;;24.30;48.70;;;;;;6159565;23;20235;-84
2021/07/25 09:54:05;;;;;;;6.25;3.85;;;24.60;50.70;;;;;;6158213;23;20175;-82
2021/07/25 09:56:32;;;;;;;5.85;3.60;;;25.00;49.30;;;;;;6158391;23;20201;-84
2021/07/25 09:59:00;;;;;;;3.72;3.38;;;25.50;49.30;;;;;;6160025;23;20195;-84
2021/07/25 10:01:40;;;;;;;4.57;3.80;;;26.00;43.30;;;;;;6160732;23;20202;-85
2021/07/25 10:04:13;;;;;;;4.40;3.60;;;26.30;43.70;;;;;;6161359;23;20549;-82
2021/07/25 10:06:41;;;;;;;4.82;3.67;;;25.90;43.20;;;;;;6160107;23;20209;-82
2021/07/25 10:09:10;;;;;;;5.85;4.20;;;25.60;45.30;;;;;;6160519;23;20228;-83
2021/07/25 10:11:38;;;;;;;7.35;3.65;;;25.30;45.70;;;;;;6162709;23;20206;-80
2021/07/25 10:14:05;;;;;;;5.00;3.90;;;25.00;49.50;;;;;;6160272;23;20186;-87
2021/07/25 10:16:33;;;;;;;5.00;3.90;;;25.00;48.70;;;;;;6155248;23;20278;-86
2021/07/25 10:19:05;;;;;;;6.38;4.07;;;25.10;48.80;;;;;;6154699;23;20181;-87
2021/07/25 10:21:34;;;;;;;4.30;3.53;;;25.30;47.80;;;;;;6155057;23;20678;-81
2021/07/25 10:24:03;;;;;;;4.20;3.80;;;25.00;49.20;;;;;;6158346;23;20906;-87
2021/07/25 10:26:31;;;;;;;5.57;3.60;;;25.70;45.70;;;;;;6157728;23;20207;-85
2021/07/25 10:28:59;;;;;;;4.82;4.00;;;26.20;45.20;;;;;;6161032;23;20214;-86
2021/07/25 10:31:28;;;;;;;5.32;3.60;;;26.20;42.40;;;;;;6159522;23;20221;-89
2021/07/25 10:33:56;;;;;;;4.13;3.67;;;26.20;42.00;;;;;;6156252;23;20185;-89
2021/07/25 10:36:24;;;;;;;5.38;3.50;;;26.30;40.90;;;;;;6131367;23;20203;-92
2021/07/25 10:38:52;;;;;;;7.10;3.85;;;26.40;40.90;;;;;;6153107;23;20175;-91
2021/07/25 10:44:06;;;;;;;4.43;3.50;;;26.20;43.70;;;;;;6151543;23;20178;-91
2021/07/25 10:46:33;;;;;;;5.45;3.53;;;26.30;42.90;;;;;;6151052;23;20263;-91
2021/07/25 10:49:14;;;;;;;3.70;3.40;;;26.80;42.20;;;;;;6154288;23;20512;-90
2021/07/25 10:52:00;;;;;;;4.53;3.40;;;27.30;39.00;;;;;;6130213;23;20655;-91
2021/07/25 10:54:49;;;;;;;3.72;3.33;;;27.80;38.00;;;;;;6156147;23;20158;-92
2021/07/25 10:57:17;;;;;;;4.32;3.40;;;27.90;36.30;;;;;;6089273;23;20206;-89
2021/07/25 10:59:50;;;;;;;6.80;3.47;;;28.50;33.20;;;;;;6155194;23;20171;-92
2021/07/25 11:02:59;;;;;;;6.38;3.58;;;28.70;32.30;;;;;;6155250;23;20190;-91
2021/07/25 11:05:26;;;;;;;7.03;3.83;;;28.60;33.40;;;;;;6102838;23;20221;-85
2021/07/25 11:08:00;;;;;;;4.78;3.63;;;28.30;33.10;;;;;;6157674;23;20199;-86
2021/07/25 11:10:31;;;;;;;4.90;3.38;;;27.60;35.60;;;;;;6156513;23;20273;-87
2021/07/25 11:13:20;;;;;;;5.10;3.50;;;27.10;37.50;;;;;;6155722;23;20198;-88
2021/07/25 11:15:49;;;;;;;3.88;3.47;;;26.60;37.20;;;;;;6155393;23;20725;-87
2021/07/25 11:18:29;;;;;;;3.67;3.38;;;26.30;38.20;;;;;;6155877;23;20177;-87
2021/07/25 11:21:01;;;;;;;3.72;3.35;;;26.30;39.80;;;;;;6155208;23;20202;-86
2021/07/25 11:23:37;;;;;;;3.95;3.63;;;26.50;41.10;;;;;;6156783;23;20183;-85
2021/07/25 11:26:30;;;;;;;4.63;4.22;;;26.40;40.90;;;;;;6154054;23;20213;-88
2021/07/25 11:28:58;;;;;;;5.60;4.22;;;26.60;40.00;;;;;;6158283;23;20171;-88
2021/07/25 11:31:36;;;;;;;4.82;3.78;;;26.70;40.40;;;;;;6156644;23;20262;-83
2021/07/25 11:34:03;;;;;;;4.45;3.65;;;26.80;39.10;;;;;;6159160;23;20191;-82
2021/07/25 11:36:30;;;;;;;6.38;4.13;;;26.80;42.10;;;;;;6158556;23;20205;-82
2021/07/25 11:39:00;;;;;;;5.00;3.80;;;27.10;40.10;;;;;;6160883;23;20202;-83
2021/07/25 11:41:36;;;;;;;6.45;4.40;;;26.90;37.40;;;;;;6164952;23;20220;-83
2021/07/25 11:44:05;;;;;;;5.20;4.53;;;27.00;40.70;;;;;;6163758;23;20202;-84
2021/07/25 11:46:37;;;;;;;5.40;4.13;;;26.70;44.20;;;;;;6159161;23;20634;-83
2021/07/25 11:49:16;;;;;;;5.93;4.60;;;26.70;39.90;;;;;;6156550;23;20784;-88
2021/07/25 11:51:46;;;;;;;6.13;4.70;;;26.60;39.60;;;;;;6154815;23;20951;-88
2021/07/25 11:54:14;;;;;;;4.72;4.28;;;26.60;41.10;;;;;;6156191;23;20274;-89
2021/07/25 11:56:58;;;;;;;5.63;4.18;;;26.50;37.30;;;;;;6154477;23;20294;-87
2021/07/25 11:59:28;;;;;;;4.63;4.00;;;26.20;39.90;;;;;;6154056;23;20258;-86
2021/07/25 12:01:56;;;;;;;4.75;4.25;;;26.10;40.70;;;;;;6155638;23;20281;-87
2021/07/25 12:04:25;;;;;;;5.57;4.00;;;26.20;42.70;;;;;;6156968;23;20179;-87
2021/07/25 12:07:07;;;;;;;5.25;4.03;;;26.10;40.40;;;;;;6155257;23;20206;-88
2021/07/25 12:09:35;;;;;;;4.82;4.00;;;26.40;38.80;;;;;;6156292;23;20190;-89
2021/07/25 12:12:05;;;;;;;13.90;12.45;;;26.40;40.50;;;;;;6155931;23;20207;-87
2021/07/25 12:14:33;;;;;;;7.95;4.05;;;26.30;40.30;;;;;;6156538;23;20175;-87
2021/07/25 12:17:03;;;;;;;14.88;13.27;;;26.30;40.10;;;;;;6154454;23;20227;-85
2021/07/25 12:19:35;;;;;;;7.00;6.05;;;26.40;39.30;;;;;;6160758;23;20242;-85
2021/07/25 12:22:08;;;;;;;6.50;4.30;;;26.40;40.80;;;;;;6157690;23;20762;-85
2021/07/25 12:24:37;;;;;;;6.25;3.60;;;26.30;38.70;;;;;;6157757;23;20262;-85
2021/07/25 12:27:05;;;;;;;5.68;4.35;;;26.30;38.20;;;;;;6156491;23;20203;-86
2021/07/25 12:29:43;;;;;;;6.53;3.90;;;26.30;38.40;;;;;;6131925;23;20647;-86
2021/07/25 12:32:37;;;;;;;5.93;3.63;;;26.10;38.40;;;;;;6156313;23;20210;-83
2021/07/25 12:35:24;;;;;;;6.13;4.47;;;25.90;39.00;;;;;;6129361;23;21145;-84
2021/07/25 12:37:55;;;;;;;6.00;4.18;;;25.60;41.50;;;;;;6132516;23;20174;-87
2021/07/25 12:40:25;;;;;;;4.43;3.92;;;25.20;44.90;;;;;;6130963;23;20587;-83
2021/07/25 12:43:06;;;;;;;7.13;4.32;;;25.20;45.20;;;;;;6160309;23;20190;-85
2021/07/25 12:45:51;;;;;;;5.25;4.25;;;25.40;44.70;;;;;;6135004;23;20207;-85
2021/07/25 12:48:38;;;;;;;5.28;4.03;;;25.40;45.30;;;;;;6135199;23;20251;-83
2021/07/25 12:51:18;;;;;;;6.50;4.85;;;25.20;44.10;;;;;;6158206;23;20254;-84
2021/07/25 12:53:47;;;;;;;4.30;3.72;;;25.00;47.40;;;;;;6156220;23;20197;-86
2021/07/25 12:56:15;;;;;;;6.25;3.85;;;24.90;47.00;;;;;;6158756;23;20207;-85
2021/07/25 12:58:45;;;;;;;5.18;4.68;;;24.90;46.00;;;;;;6161489;23;20505;-86
2021/07/25 13:03:57;;;;;;;5.68;5.07;;;25.20;44.90;;;;;;6160765;23;20186;-83
2021/07/25 13:06:27;;;;;;;4.28;3.72;;;25.30;44.10;;;;;;6158995;23;20767;-88
2021/07/25 13:08:55;;;;;;;4.90;4.10;;;25.40;42.60;;;;;;6155665;23;20570;-87
2021/07/25 13:11:25;;;;;;;8.38;4.13;;;25.30;42.50;;;;;;6157256;23;20282;-86
2021/07/25 13:13:53;;;;;;;5.68;4.22;;;25.20;43.20;;;;;;6156421;23;20199;-87
2021/07/25 13:16:21;;;;;;;4.82;3.80;;;25.30;43.40;;;;;;6132673;23;20210;-84
2021/07/25 13:18:50;;;;;;;4.45;4.00;;;25.40;40.70;;;;;;6160620;23;20279;-83
2021/07/25 13:21:20;;;;;;;5.40;3.80;;;25.10;43.30;;;;;;6157591;23;20205;-84
2021/07/25 13:23:48;;;;;;;3.88;3.40;;;25.20;43.60;;;;;;6158815;23;20189;-83
2021/07/25 13:26:17;;;;;;;4.22;3.83;;;25.30;40.80;;;;;;6159801;23;20275;-84
2021/07/25 13:28:45;;;;;;;5.15;3.70;;;25.50;41.40;;;;;;6158855;23;20191;-84
2021/07/25 13:31:13;;;;;;;3.80;3.50;;;25.70;40.80;;;;;;6156421;23;20238;-83
2021/07/25 13:33:40;;;;;;;5.10;3.78;;;26.10;40.00;;;;;;6157595;23;20203;-82
2021/07/25 13:36:08;;;;;;;4.63;3.83;;;26.30;37.00;;;;;;6157332;23;20674;-83
2021/07/25 13:38:38;;;;;;;4.18;3.80;;;26.20;37.00;;;;;;6157244;23;20175;-80
2021/07/25 13:41:06;;;;;;;4.10;3.65;;;25.90;36.80;;;;;;6129659;23;20211;-83
2021/07/25 13:43:34;;;;;;;7.22;3.90;;;25.60;39.90;;;;;;6156379;23;20508;-84
2021/07/25 13:46:02;;;;;;;4.95;3.70;;;25.40;42.90;;;;;;6156785;23;20213;-84
2021/07/25 13:48:31;;;;;;;4.30;3.90;;;25.10;41.80;;;;;;6157525;23;20191;-83
2021/07/25 13:51:03;;;;;;;4.35;3.88;;;25.00;44.10;;;;;;6157634;23;20306;-83
2021/07/25 13:53:30;;;;;;;6.78;3.63;;;25.00;46.20;;;;;;6157018;23;20179;-83
2021/07/25 13:55:59;;;;;;;5.80;3.90;;;25.00;44.00;;;;;;6158962;23;20222;-83
2021/07/25 13:58:26;;;;;;;5.80;4.07;;;25.00;46.20;;;;;;6158459;23;20510;-82
2021/07/25 14:00:53;;;;;;;4.57;3.65;;;24.90;46.10;;;;;;6157282;23;20282;-82
2021/07/25 14:03:20;;;;;;;5.75;3.38;;;24.90;43.60;;;;;;6160560;23;20175;-82
2021/07/25 14:05:47;;;;;;;5.78;4.10;;;24.90;45.30;;;;;;6163127;23;20227;-84
2021/07/25 14:08:15;;;;;;;7.03;4.60;;;25.30;46.70;;;;;;6173801;23;20553;-83
2021/07/25 14:10:42;;;;;;;5.72;4.88;;;25.40;47.40;;;;;;6160798;23;20206;-83
2021/07/25 14:13:11;;;;;;;9.02;4.40;;;25.40;53.20;;;;;;6159528;23;20560;-83
2021/07/25 14:15:38;;;;;;;8.73;4.82;;;25.60;54.80;;;;;;6157910;23;20211;-83
2021/07/25 14:18:07;;;;;;;8.63;5.03;;;25.40;57.00;;;;;;6158971;23;20183;-83
2021/07/25 14:20:39;;;;;;;7.45;4.82;;;25.10;59.50;;;;;;6158086;23;20255;-84
2021/07/25 14:23:07;;;;;;;6.88;5.10;;;25.10;60.60;;;;;;6157896;23;20187;-85
2021/07/25 14:25:34;;;;;;;5.82;4.85;;;24.90;60.40;;;;;;6154185;23;20289;-86
2021/07/25 14:28:01;;;;;;;8.88;5.20;;;24.90;60.50;;;;;;6157135;23;20181;-87
2021/07/25 14:30:34;;;;;;;6.40;4.75;;;25.20;60.60;;;;;;6156065;23;20598;-86
2021/07/25 14:33:01;;;;;;;7.88;5.53;;;24.90;60.40;;;;;;6156064;23;20191;-86
2021/07/25 14:35:28;;;;;;;6.72;5.00;;;24.80;60.60;;;;;;6157593;23;20197;-87
2021/07/25 14:37:55;;;;;;;5.63;4.90;;;24.60;63.20;;;;;;6130542;23;20202;-85
2021/07/25 14:40:22;;;;;;;6.88;5.07;;;24.50;64.70;;;;;;6158073;23;20285;-86
2021/07/25 14:42:49;;;;;;;7.97;4.90;;;24.40;65.20;;;;;;6158228;23;20214;-86
2021/07/25 14:45:16;;;;;;;6.78;5.00;;;24.40;65.60;;;;;;6158925;23;20194;-85
2021/07/25 14:47:44;;;;;;;9.15;5.32;;;24.20;66.90;;;;;;6160807;23;20588;-84